PWSweather.com
Personal Weather Stations
Station Observations
ISINALOA5
Olimpica, MazatlanMX 82150

OlimpicaMazatlanMX 82150

Lat: 23.23678, Lon: -106.414653

Elevation: 30

Station Type: Davis Vantage Pro 2

Latest ConditionsUpdated 3:24:39 AM MDT Saturday, Sep 23, 2017
Currently Today's Max Today's Min Today's Average
Temperature 81.1°F27.3°C 82.2°F27.9°C 80.6°F27.0°C 81.4°F27.4°C
Dew Point 76.9°F24.9°C 76.9°F24.9°C 76.3°F24.6°C 76.6°F24.8°C
Winds 2.0 mph NE3.2 kmh NE 3.0 mph NE4.8 kmh NE - 1.1 mph 1.8 kmh
Wind Gusts 4.0 mph6.4 kmh 5.0 mph8.0 kmh - -
Humidity 87% 88% 83% 85%
Pressure 29.70 in1005.8 mb 29.71 in1006.1 mb 29.69 in1005.4 mb -
Hour Temp Dew Point Humidity Winds Wind Gusts Pressure Precip Precip Rate Daily Precip Total
03:24 AM 81.1°F27.3°C 76.9°F24.9°C 87% 2.0 mph NE3.2 kmh NE 4.0 mph6.4 kmh 29.70 in1005.8 mb 0.00 in0.0 mm 0.00 in0.0 mm 0.00 in0.0 mm
03:19 AM 81.1°F27.3°C 76.9°F24.9°C 87% 2.2 mph NE3.5 kmh NE 4.0 mph6.4 kmh 29.70 in1005.8 mb 0.00 in0.0 mm 0.00 in0.0 mm 0.00 in0.0 mm
03:14 AM 81.0°F27.2°C 76.8°F24.9°C 87% 2.1 mph NE3.4 kmh NE 4.0 mph6.4 kmh 29.70 in1005.8 mb 0.00 in0.0 mm 0.00 in0.0 mm 0.00 in0.0 mm
03:09 AM 80.8°F27.1°C 76.6°F24.8°C 87% Calm Calm 1.0 mph1.6 kmh 29.70 in1005.8 mb 0.00 in0.0 mm 0.00 in0.0 mm 0.00 in0.0 mm
03:04 AM 80.7°F27.1°C 76.8°F24.9°C 88% Calm Calm 3.0 mph4.8 kmh 29.70 in1005.8 mb 0.00 in0.0 mm 0.00 in0.0 mm 0.00 in0.0 mm
02:59 AM 80.6°F27.0°C 76.7°F24.8°C 88% Calm Calm 3.0 mph4.8 kmh 29.70 in1005.8 mb 0.00 in0.0 mm 0.00 in0.0 mm 0.00 in0.0 mm
02:54 AM 80.6°F27.0°C 76.7°F24.8°C 88% Calm Calm 4.0 mph6.4 kmh 29.70 in1005.8 mb 0.00 in0.0 mm 0.00 in0.0 mm 0.00 in0.0 mm
02:49 AM 80.7°F27.1°C 76.5°F24.7°C 87% 1.4 mph NNE2.3 kmh NNE 4.0 mph6.4 kmh 29.70 in1005.8 mb 0.00 in0.0 mm 0.00 in0.0 mm 0.00 in0.0 mm
02:44 AM 80.8°F27.1°C 76.6°F24.8°C 87% 1.7 mph NNE2.7 kmh NNE 4.0 mph6.4 kmh 29.69 in1005.4 mb 0.00 in0.0 mm 0.00 in0.0 mm 0.00 in0.0 mm
02:39 AM 80.9°F27.2°C 76.7°F24.8°C 87% 2.8 mph NNE4.5 kmh NNE 4.0 mph6.4 kmh 29.69 in1005.4 mb 0.00 in0.0 mm 0.00 in0.0 mm 0.00 in0.0 mm
02:34 AM 80.9°F27.2°C 76.4°F24.7°C 86% 3.0 mph NE4.8 kmh NE 5.0 mph8.0 kmh 29.69 in1005.4 mb 0.00 in0.0 mm 0.00 in0.0 mm 0.00 in0.0 mm
02:29 AM 80.9°F27.2°C 76.3°F24.6°C 86% Calm Calm 5.0 mph8.0 kmh 29.69 in1005.4 mb 0.00 in0.0 mm 0.00 in0.0 mm 0.00 in0.0 mm
02:24 AM 80.9°F27.2°C 76.3°F24.6°C 86% 1.8 mph NE2.9 kmh NE 5.0 mph8.0 kmh 29.69 in1005.4 mb 0.00 in0.0 mm 0.00 in0.0 mm 0.00 in0.0 mm
02:19 AM 81.1°F27.3°C 76.6°F24.8°C 86% 2.7 mph NE4.3 kmh NE 5.0 mph8.0 kmh 29.69 in1005.4 mb 0.00 in0.0 mm 0.00 in0.0 mm 0.00 in0.0 mm
02:14 AM 81.3°F27.4°C 76.4°F24.7°C 85% 2.3 mph NE3.7 kmh NE 4.0 mph6.4 kmh 29.69 in1005.4 mb 0.00 in0.0 mm 0.00 in0.0 mm 0.00 in0.0 mm
02:09 AM 81.6°F27.6°C 76.7°F24.8°C 85% 2.3 mph ENE3.7 kmh ENE 4.0 mph6.4 kmh 29.70 in1005.8 mb 0.00 in0.0 mm 0.00 in0.0 mm 0.00 in0.0 mm
02:04 AM 81.6°F27.6°C 76.7°F24.8°C 85% 1.9 mph ENE3.1 kmh ENE 4.0 mph6.4 kmh 29.71 in1006.1 mb 0.00 in0.0 mm 0.00 in0.0 mm 0.00 in0.0 mm
01:59 AM 81.5°F27.5°C 76.6°F24.8°C 85% 2.1 mph ENE3.4 kmh ENE 3.0 mph4.8 kmh 29.71 in1006.1 mb 0.00 in0.0 mm 0.00 in0.0 mm 0.00 in0.0 mm
01:54 AM 81.4°F27.4°C 76.5°F24.7°C 85% 1.1 mph NE1.8 kmh NE 3.0 mph4.8 kmh 29.71 in1006.1 mb 0.00 in0.0 mm 0.00 in0.0 mm 0.00 in0.0 mm
01:49 AM 81.3°F27.4°C 76.4°F24.7°C 85% Calm Calm 4.0 mph6.4 kmh 29.71 in1006.1 mb 0.00 in0.0 mm 0.00 in0.0 mm 0.00 in0.0 mm
01:44 AM 81.3°F27.4°C 76.4°F24.7°C 85% 1.8 mph NE2.9 kmh NE 4.0 mph6.4 kmh 29.71 in1006.1 mb 0.00 in0.0 mm 0.00 in0.0 mm 0.00 in0.0 mm
01:39 AM 81.2°F27.3°C 76.3°F24.6°C 85% 1.6 mph NE2.6 kmh NE 4.0 mph6.4 kmh 29.71 in1006.1 mb 0.00 in0.0 mm 0.00 in0.0 mm 0.00 in0.0 mm
01:34 AM 81.2°F27.3°C 76.6°F24.8°C 86% 2.2 mph NE3.5 kmh NE 4.0 mph6.4 kmh 29.71 in1006.1 mb 0.00 in0.0 mm 0.00 in0.0 mm 0.00 in0.0 mm
01:29 AM 81.2°F27.3°C 76.7°F24.8°C 86% 1.8 mph NE2.9 kmh NE 4.0 mph6.4 kmh 29.70 in1005.8 mb 0.00 in0.0 mm 0.00 in0.0 mm 0.00 in0.0 mm
01:24 AM 81.2°F27.3°C 76.7°F24.8°C 86% 1.8 mph NE2.9 kmh NE 4.0 mph6.4 kmh 29.70 in1005.8 mb 0.00 in0.0 mm 0.00 in0.0 mm 0.00 in0.0 mm
01:19 AM 81.3°F27.4°C 76.7°F24.8°C 86% 2.1 mph NE3.4 kmh NE 4.0 mph6.4 kmh 29.70 in1005.8 mb 0.00 in0.0 mm 0.00 in0.0 mm 0.00 in0.0 mm
01:14 AM 81.5°F27.5°C 76.6°F24.8°C 85% 2.0 mph NE3.2 kmh NE 4.0 mph6.4 kmh 29.70 in1005.8 mb 0.00 in0.0 mm 0.00 in0.0 mm 0.00 in0.0 mm
01:09 AM 81.7°F27.6°C 76.8°F24.9°C 85% 2.0 mph ENE3.2 kmh ENE 4.0 mph6.4 kmh 29.70 in1005.8 mb 0.00 in0.0 mm 0.00 in0.0 mm 0.00 in0.0 mm
01:04 AM 81.8°F27.7°C 76.6°F24.8°C 84% 2.3 mph E3.7 kmh E 4.0 mph6.4 kmh 29.70 in1005.8 mb 0.00 in0.0 mm 0.00 in0.0 mm 0.00 in0.0 mm
12:59 AM 81.9°F27.7°C 76.7°F24.8°C 84% Calm Calm -- 29.70 in1005.8 mb 0.00 in0.0 mm 0.00 in0.0 mm 0.00 in0.0 mm
12:54 AM 82.1°F27.8°C 76.9°F24.9°C 84% Calm Calm -- 29.70 in1005.8 mb 0.00 in0.0 mm 0.00 in0.0 mm 0.00 in0.0 mm
12:48 AM 82.1°F27.8°C 76.9°F24.9°C 84% Calm Calm -- 29.70 in1005.8 mb 0.00 in0.0 mm 0.00 in0.0 mm 0.00 in0.0 mm
12:44 AM 82.2°F27.9°C 76.9°F24.9°C 84% Calm Calm -- 29.70 in1005.8 mb 0.00 in0.0 mm 0.00 in0.0 mm 0.00 in0.0 mm
12:38 AM 82.2°F27.9°C 76.9°F24.9°C 84% Calm Calm -- 29.70 in1005.8 mb 0.00 in0.0 mm 0.00 in0.0 mm 0.00 in0.0 mm
12:33 AM 82.2°F27.9°C 76.5°F24.7°C 83% Calm Calm -- 29.70 in1005.8 mb 0.00 in0.0 mm 0.00 in0.0 mm 0.00 in0.0 mm
12:28 AM 82.1°F27.8°C 76.9°F24.9°C 84% Calm Calm -- 29.70 in1005.8 mb 0.00 in0.0 mm 0.00 in0.0 mm 0.00 in0.0 mm
12:23 AM 82.1°F27.8°C 76.5°F24.7°C 83% Calm Calm -- 29.71 in1006.1 mb 0.00 in0.0 mm 0.00 in0.0 mm 0.00 in0.0 mm
12:18 AM 82.1°F27.8°C 76.5°F24.7°C 83% Calm Calm -- 29.71 in1006.1 mb 0.00 in0.0 mm 0.00 in0.0 mm 0.00 in0.0 mm
12:13 AM 82.0°F27.8°C 76.4°F24.7°C 83% Calm Calm -- 29.71 in1006.1 mb 0.00 in0.0 mm 0.00 in0.0 mm 0.00 in0.0 mm
12:08 AM 82.0°F27.8°C 76.3°F24.6°C 83% Calm Calm -- 29.71 in1006.1 mb 0.00 in0.0 mm 0.00 in0.0 mm 0.00 in0.0 mm
12:03 AM 82.0°F27.8°C 76.4°F24.7°C 83% Calm Calm -- 29.71 in1006.1 mb 0.00 in0.0 mm 0.00 in0.0 mm 0.00 in0.0 mm